LROD-ORADEA

Valid from:2018-09-22 00:30:00

METAR LROD 220030Z AUTO 10004KT 9999 NCD 15/10 Q1015=

Valid from:2018-09-21 14:00:00

TAF LROD 211400Z 2115/2124 22008KT CAVOK=